Terminal Aerodrome Forecast
Issued by NWS

Home | Current Version | Previous Version | Text Only | Print | Product List | Glossary On
Versions: 1 2 3 4 5 6 7 8 9 10 11 12 13 14 15 16 17 18 19 20 21 22 23 24
000
FTUS43 KDLH 272329
TAFHIB
TAF
KHIB 272329Z 2800/2824 08005KT P6SM SCT070
     FM280500 00000KT 3SM BR SCT007 SCT050
      TEMPO 2808/2812 1/2SM FG SCT004
     FM281400 08005KT P6SM SCT050=

USA.gov is the U.S. government's official web portal to all federal, state and local government web resources and services.